sensor_id;sensor_type;location;lat;lon;timestamp;P1;durP1;ratioP1;P2;durP2;ratioP2
75772;SDS011;64381;0.000;0.000;2024-02-15T00:02:17;2.90;;;1.20;;
75772;SDS011;64381;0.000;0.000;2024-02-15T00:04:43;3.00;;;1.40;;
75772;SDS011;64381;0.000;0.000;2024-02-15T00:07:08;3.37;;;1.20;;
75772;SDS011;64381;0.000;0.000;2024-02-15T00:09:33;3.20;;;1.30;;
75772;SDS011;64381;0.000;0.000;2024-02-15T00:11:59;3.33;;;1.17;;
75772;SDS011;64381;0.000;0.000;2024-02-15T00:14:24;2.80;;;1.03;;
75772;SDS011;64381;0.000;0.000;2024-02-15T00:16:49;3.27;;;1.40;;
75772;SDS011;64381;0.000;0.000;2024-02-15T00:19:14;3.47;;;1.23;;
75772;SDS011;64381;0.000;0.000;2024-02-15T00:21:42;2.80;;;1.10;;
75772;SDS011;64381;0.000;0.000;2024-02-15T00:24:08;3.00;;;1.35;;
75772;SDS011;64381;0.000;0.000;2024-02-15T00:26:33;3.03;;;1.20;;
75772;SDS011;64381;0.000;0.000;2024-02-15T00:28:58;2.90;;;1.10;;
75772;SDS011;64381;0.000;0.000;2024-02-15T00:31:24;3.30;;;1.20;;
75772;SDS011;64381;0.000;0.000;2024-02-15T00:33:49;2.50;;;1.00;;
75772;SDS011;64381;0.000;0.000;2024-02-15T00:36:14;2.93;;;1.30;;
75772;SDS011;64381;0.000;0.000;2024-02-15T00:38:39;3.97;;;1.20;;
75772;SDS011;64381;0.000;0.000;2024-02-15T00:41:04;2.60;;;1.10;;
75772;SDS011;64381;0.000;0.000;2024-02-15T00:43:30;3.00;;;1.17;;
75772;SDS011;64381;0.000;0.000;2024-02-15T00:45:59;2.70;;;1.00;;
75772;SDS011;64381;0.000;0.000;2024-02-15T00:48:24;2.80;;;1.10;;
75772;SDS011;64381;0.000;0.000;2024-02-15T00:50:49;3.63;;;1.20;;
75772;SDS011;64381;0.000;0.000;2024-02-15T00:53:15;4.00;;;1.10;;
75772;SDS011;64381;0.000;0.000;2024-02-15T00:55:40;3.27;;;1.27;;
75772;SDS011;64381;0.000;0.000;2024-02-15T00:58:05;3.00;;;1.30;;
75772;SDS011;64381;0.000;0.000;2024-02-15T01:00:30;2.87;;;1.13;;
75772;SDS011;64381;0.000;0.000;2024-02-15T01:02:55;3.30;;;1.20;;
75772;SDS011;64381;0.000;0.000;2024-02-15T01:05:21;3.60;;;1.20;;
75772;SDS011;64381;0.000;0.000;2024-02-15T01:07:46;3.83;;;1.10;;
75772;SDS011;64381;0.000;0.000;2024-02-15T01:10:11;2.83;;;1.20;;
75772;SDS011;64381;0.000;0.000;2024-02-15T01:12:37;2.80;;;1.00;;
75772;SDS011;64381;0.000;0.000;2024-02-15T01:15:02;2.60;;;1.03;;
75772;SDS011;64381;0.000;0.000;2024-02-15T01:17:27;2.97;;;1.10;;
75772;SDS011;64381;0.000;0.000;2024-02-15T01:19:53;2.80;;;1.00;;
75772;SDS011;64381;0.000;0.000;2024-02-15T01:22:18;2.90;;;1.10;;
75772;SDS011;64381;0.000;0.000;2024-02-15T01:24:43;3.10;;;1.10;;
75772;SDS011;64381;0.000;0.000;2024-02-15T01:27:08;3.00;;;1.20;;
75772;SDS011;64381;0.000;0.000;2024-02-15T01:29:34;2.87;;;1.20;;
75772;SDS011;64381;0.000;0.000;2024-02-15T01:32:00;2.80;;;1.20;;
75772;SDS011;64381;0.000;0.000;2024-02-15T01:34:25;3.20;;;1.10;;
75772;SDS011;64381;0.000;0.000;2024-02-15T01:36:50;3.10;;;1.23;;
75772;SDS011;64381;0.000;0.000;2024-02-15T01:39:16;2.90;;;1.20;;
75772;SDS011;64381;0.000;0.000;2024-02-15T01:41:45;2.77;;;1.20;;
75772;SDS011;64381;0.000;0.000;2024-02-15T01:44:11;2.92;;;1.10;;
75772;SDS011;64381;0.000;0.000;2024-02-15T01:46:37;2.93;;;1.10;;
75772;SDS011;64381;0.000;0.000;2024-02-15T01:49:02;2.83;;;1.00;;
75772;SDS011;64381;0.000;0.000;2024-02-15T01:51:27;2.70;;;1.00;;
75772;SDS011;64381;0.000;0.000;2024-02-15T01:53:53;2.60;;;0.93;;
75772;SDS011;64381;0.000;0.000;2024-02-15T01:56:19;3.20;;;1.08;;
75772;SDS011;64381;0.000;0.000;2024-02-15T01:58:47;2.80;;;1.00;;
75772;SDS011;64381;0.000;0.000;2024-02-15T02:01:13;2.55;;;0.93;;
75772;SDS011;64381;0.000;0.000;2024-02-15T02:03:40;2.80;;;1.03;;
75772;SDS011;64381;0.000;0.000;2024-02-15T02:06:05;3.30;;;1.10;;
75772;SDS011;64381;0.000;0.000;2024-02-15T02:08:30;3.55;;;1.20;;
75772;SDS011;64381;0.000;0.000;2024-02-15T02:10:55;2.60;;;1.10;;
75772;SDS011;64381;0.000;0.000;2024-02-15T02:13:21;3.20;;;1.10;;
75772;SDS011;64381;0.000;0.000;2024-02-15T02:15:46;2.57;;;1.10;;
75772;SDS011;64381;0.000;0.000;2024-02-15T02:18:12;2.83;;;1.10;;
75772;SDS011;64381;0.000;0.000;2024-02-15T02:20:37;2.50;;;0.90;;
75772;SDS011;64381;0.000;0.000;2024-02-15T02:23:03;2.67;;;1.07;;
75772;SDS011;64381;0.000;0.000;2024-02-15T02:25:33;3.83;;;1.20;;
75772;SDS011;64381;0.000;0.000;2024-02-15T02:27:58;2.80;;;1.03;;
75772;SDS011;64381;0.000;0.000;2024-02-15T02:30:24;2.95;;;1.10;;
75772;SDS011;64381;0.000;0.000;2024-02-15T02:32:49;3.30;;;1.30;;
75772;SDS011;64381;0.000;0.000;2024-02-15T02:35:15;2.57;;;1.07;;
75772;SDS011;64381;0.000;0.000;2024-02-15T02:37:40;2.80;;;1.10;;
75772;SDS011;64381;0.000;0.000;2024-02-15T02:40:05;3.40;;;1.20;;
75772;SDS011;64381;0.000;0.000;2024-02-15T02:42:31;3.47;;;1.25;;
75772;SDS011;64381;0.000;0.000;2024-02-15T02:44:56;2.83;;;1.27;;
75772;SDS011;64381;0.000;0.000;2024-02-15T02:47:22;2.77;;;0.90;;
75772;SDS011;64381;0.000;0.000;2024-02-15T02:49:47;2.90;;;1.00;;
75772;SDS011;64381;0.000;0.000;2024-02-15T02:52:12;3.20;;;1.30;;
75772;SDS011;64381;0.000;0.000;2024-02-15T02:54:37;3.10;;;1.20;;
75772;SDS011;64381;0.000;0.000;2024-02-15T02:57:03;2.93;;;1.30;;
75772;SDS011;64381;0.000;0.000;2024-02-15T02:59:28;2.97;;;1.07;;
75772;SDS011;64381;0.000;0.000;2024-02-15T03:01:53;3.00;;;1.10;;
75772;SDS011;64381;0.000;0.000;2024-02-15T03:04:18;2.80;;;1.00;;
75772;SDS011;64381;0.000;0.000;2024-02-15T03:06:43;4.03;;;1.03;;
75772;SDS011;64381;0.000;0.000;2024-02-15T03:09:09;2.53;;;1.10;;
75772;SDS011;64381;0.000;0.000;2024-02-15T03:11:36;2.63;;;1.00;;
75772;SDS011;64381;0.000;0.000;2024-02-15T03:14:01;2.40;;;0.90;;
75772;SDS011;64381;0.000;0.000;2024-02-15T03:16:27;2.50;;;0.90;;
75772;SDS011;64381;0.000;0.000;2024-02-15T03:18:52;3.23;;;1.10;;
75772;SDS011;64381;0.000;0.000;2024-02-15T03:21:17;2.70;;;1.00;;
75772;SDS011;64381;0.000;0.000;2024-02-15T03:23:43;2.87;;;1.00;;
75772;SDS011;64381;0.000;0.000;2024-02-15T03:26:08;2.70;;;1.00;;
75772;SDS011;64381;0.000;0.000;2024-02-15T03:28:33;3.50;;;1.20;;
75772;SDS011;64381;0.000;0.000;2024-02-15T03:30:58;2.50;;;1.10;;
75772;SDS011;64381;0.000;0.000;2024-02-15T03:33:24;2.70;;;1.10;;
75772;SDS011;64381;0.000;0.000;2024-02-15T03:35:49;2.40;;;0.97;;
75772;SDS011;64381;0.000;0.000;2024-02-15T03:38:15;2.75;;;1.10;;
75772;SDS011;64381;0.000;0.000;2024-02-15T03:40:40;3.00;;;1.20;;
75772;SDS011;64381;0.000;0.000;2024-02-15T03:43:07;2.47;;;1.00;;
75772;SDS011;64381;0.000;0.000;2024-02-15T03:45:33;2.60;;;1.10;;
75772;SDS011;64381;0.000;0.000;2024-02-15T03:47:58;2.77;;;0.90;;
75772;SDS011;64381;0.000;0.000;2024-02-15T03:50:23;2.97;;;1.10;;
75772;SDS011;64381;0.000;0.000;2024-02-15T03:52:49;2.77;;;1.10;;
75772;SDS011;64381;0.000;0.000;2024-02-15T03:55:14;3.27;;;1.10;;
75772;SDS011;64381;0.000;0.000;2024-02-15T03:57:40;2.50;;;0.83;;
75772;SDS011;64381;0.000;0.000;2024-02-15T04:00:05;2.60;;;1.05;;
75772;SDS011;64381;0.000;0.000;2024-02-15T04:02:32;3.00;;;0.90;;
75772;SDS011;64381;0.000;0.000;2024-02-15T04:04:57;2.70;;;1.10;;
75772;SDS011;64381;0.000;0.000;2024-02-15T04:07:23;3.10;;;1.10;;
75772;SDS011;64381;0.000;0.000;2024-02-15T04:09:48;2.40;;;0.97;;
75772;SDS011;64381;0.000;0.000;2024-02-15T04:12:13;2.90;;;1.10;;
75772;SDS011;64381;0.000;0.000;2024-02-15T04:14:39;2.87;;;1.10;;
75772;SDS011;64381;0.000;0.000;2024-02-15T04:17:05;2.47;;;1.05;;
75772;SDS011;64381;0.000;0.000;2024-02-15T04:19:31;2.60;;;1.00;;
75772;SDS011;64381;0.000;0.000;2024-02-15T04:21:56;2.70;;;0.90;;
75772;SDS011;64381;0.000;0.000;2024-02-15T04:24:22;2.90;;;0.97;;
75772;SDS011;64381;0.000;0.000;2024-02-15T04:26:47;2.73;;;1.00;;
75772;SDS011;64381;0.000;0.000;2024-02-15T04:29:13;3.00;;;0.98;;
75772;SDS011;64381;0.000;0.000;2024-02-15T04:31:38;2.57;;;1.00;;
75772;SDS011;64381;0.000;0.000;2024-02-15T04:34:03;2.60;;;1.00;;
75772;SDS011;64381;0.000;0.000;2024-02-15T04:36:28;2.80;;;0.90;;
75772;SDS011;64381;0.000;0.000;2024-02-15T04:38:54;2.60;;;0.90;;
75772;SDS011;64381;0.000;0.000;2024-02-15T04:41:19;2.80;;;1.10;;
75772;SDS011;64381;0.000;0.000;2024-02-15T04:43:45;3.17;;;1.10;;
75772;SDS011;64381;0.000;0.000;2024-02-15T04:46:11;2.42;;;1.00;;
75772;SDS011;64381;0.000;0.000;2024-02-15T04:48:36;2.70;;;1.00;;
75772;SDS011;64381;0.000;0.000;2024-02-15T04:51:02;3.57;;;1.10;;
75772;SDS011;64381;0.000;0.000;2024-02-15T04:53:27;2.73;;;1.00;;
75772;SDS011;64381;0.000;0.000;2024-02-15T04:55:52;2.70;;;1.00;;
75772;SDS011;64381;0.000;0.000;2024-02-15T04:58:17;2.70;;;1.00;;
75772;SDS011;64381;0.000;0.000;2024-02-15T05:00:42;3.37;;;1.03;;
75772;SDS011;64381;0.000;0.000;2024-02-15T05:03:08;2.63;;;0.93;;
75772;SDS011;64381;0.000;0.000;2024-02-15T05:05:33;2.60;;;1.10;;
75772;SDS011;64381;0.000;0.000;2024-02-15T05:07:58;2.57;;;0.90;;
75772;SDS011;64381;0.000;0.000;2024-02-15T05:10:23;2.70;;;1.10;;
75772;SDS011;64381;0.000;0.000;2024-02-15T05:12:49;2.60;;;1.00;;
75772;SDS011;64381;0.000;0.000;2024-02-15T05:15:14;2.50;;;0.97;;
75772;SDS011;64381;0.000;0.000;2024-02-15T05:17:40;2.67;;;0.90;;
75772;SDS011;64381;0.000;0.000;2024-02-15T05:20:06;2.90;;;1.00;;
75772;SDS011;64381;0.000;0.000;2024-02-15T05:22:32;2.90;;;0.93;;
75772;SDS011;64381;0.000;0.000;2024-02-15T05:24:58;2.70;;;1.10;;
75772;SDS011;64381;0.000;0.000;2024-02-15T05:27:23;2.53;;;0.93;;
75772;SDS011;64381;0.000;0.000;2024-02-15T05:29:48;2.70;;;1.00;;
75772;SDS011;64381;0.000;0.000;2024-02-15T05:32:13;2.70;;;1.00;;
75772;SDS011;64381;0.000;0.000;2024-02-15T05:34:39;2.90;;;1.00;;
75772;SDS011;64381;0.000;0.000;2024-02-15T05:37:04;2.47;;;0.90;;
75772;SDS011;64381;0.000;0.000;2024-02-15T05:39:29;2.73;;;0.90;;
75772;SDS011;64381;0.000;0.000;2024-02-15T05:41:54;2.63;;;1.10;;
75772;SDS011;64381;0.000;0.000;2024-02-15T05:44:19;2.40;;;0.90;;
75772;SDS011;64381;0.000;0.000;2024-02-15T05:46:45;2.70;;;1.00;;
75772;SDS011;64381;0.000;0.000;2024-02-15T05:49:10;2.70;;;1.03;;
75772;SDS011;64381;0.000;0.000;2024-02-15T05:51:35;3.03;;;0.90;;
75772;SDS011;64381;0.000;0.000;2024-02-15T05:54:00;2.67;;;1.00;;
75772;SDS011;64381;0.000;0.000;2024-02-15T05:56:25;2.80;;;0.90;;
75772;SDS011;64381;0.000;0.000;2024-02-15T05:58:51;2.50;;;0.80;;
75772;SDS011;64381;0.000;0.000;2024-02-15T06:01:17;3.17;;;1.05;;
75772;SDS011;64381;0.000;0.000;2024-02-15T06:03:42;2.90;;;1.00;;
75772;SDS011;64381;0.000;0.000;2024-02-15T06:06:07;2.70;;;1.00;;
75772;SDS011;64381;0.000;0.000;2024-02-15T06:08:33;2.43;;;0.93;;
75772;SDS011;64381;0.000;0.000;2024-02-15T06:10:58;2.77;;;1.00;;
75772;SDS011;64381;0.000;0.000;2024-02-15T06:13:25;2.80;;;1.00;;
75772;SDS011;64381;0.000;0.000;2024-02-15T06:15:51;2.80;;;0.90;;
75772;SDS011;64381;0.000;0.000;2024-02-15T06:18:16;3.17;;;1.20;;
75772;SDS011;64381;0.000;0.000;2024-02-15T06:20:41;2.90;;;1.10;;
75772;SDS011;64381;0.000;0.000;2024-02-15T06:23:07;2.67;;;0.97;;
75772;SDS011;64381;0.000;0.000;2024-02-15T06:25:32;2.43;;;0.87;;
75772;SDS011;64381;0.000;0.000;2024-02-15T06:27:57;2.90;;;1.00;;
75772;SDS011;64381;0.000;0.000;2024-02-15T06:30:22;3.17;;;1.00;;
75772;SDS011;64381;0.000;0.000;2024-02-15T06:32:47;2.60;;;1.00;;
75772;SDS011;64381;0.000;0.000;2024-02-15T06:35:15;2.63;;;0.90;;
75772;SDS011;64381;0.000;0.000;2024-02-15T06:37:40;2.63;;;1.00;;
75772;SDS011;64381;0.000;0.000;2024-02-15T06:40:05;2.40;;;0.90;;
75772;SDS011;64381;0.000;0.000;2024-02-15T06:42:31;2.63;;;0.97;;
75772;SDS011;64381;0.000;0.000;2024-02-15T06:44:56;2.70;;;1.00;;
75772;SDS011;64381;0.000;0.000;2024-02-15T06:47:22;3.07;;;0.90;;
75772;SDS011;64381;0.000;0.000;2024-02-15T06:49:47;2.70;;;1.00;;
75772;SDS011;64381;0.000;0.000;2024-02-15T06:52:12;2.67;;;1.00;;
75772;SDS011;64381;0.000;0.000;2024-02-15T06:54:41;2.47;;;1.00;;
75772;SDS011;64381;0.000;0.000;2024-02-15T06:57:07;2.70;;;1.10;;
75772;SDS011;64381;0.000;0.000;2024-02-15T06:59:32;2.37;;;0.80;;
75772;SDS011;64381;0.000;0.000;2024-02-15T07:02:01;2.70;;;1.00;;
75772;SDS011;64381;0.000;0.000;2024-02-15T07:04:26;2.60;;;0.90;;
75772;SDS011;64381;0.000;0.000;2024-02-15T07:06:52;2.45;;;0.88;;
75772;SDS011;64381;0.000;0.000;2024-02-15T07:09:17;2.50;;;1.00;;
75772;SDS011;64381;0.000;0.000;2024-02-15T07:11:43;2.50;;;1.00;;
75772;SDS011;64381;0.000;0.000;2024-02-15T07:14:08;2.70;;;1.00;;
75772;SDS011;64381;0.000;0.000;2024-02-15T07:16:33;2.40;;;0.90;;
75772;SDS011;64381;0.000;0.000;2024-02-15T07:18:59;2.27;;;0.83;;
75772;SDS011;64381;0.000;0.000;2024-02-15T07:21:24;2.70;;;0.95;;
75772;SDS011;64381;0.000;0.000;2024-02-15T07:23:49;2.33;;;0.90;;
75772;SDS011;64381;0.000;0.000;2024-02-15T07:26:15;2.40;;;0.80;;
75772;SDS011;64381;0.000;0.000;2024-02-15T07:28:40;2.50;;;0.87;;
75772;SDS011;64381;0.000;0.000;2024-02-15T07:31:05;3.17;;;0.90;;
75772;SDS011;64381;0.000;0.000;2024-02-15T07:33:30;2.40;;;0.90;;
75772;SDS011;64381;0.000;0.000;2024-02-15T07:35:55;3.03;;;1.03;;
75772;SDS011;64381;0.000;0.000;2024-02-15T07:38:21;2.80;;;1.00;;
75772;SDS011;64381;0.000;0.000;2024-02-15T07:40:46;2.70;;;0.80;;
75772;SDS011;64381;0.000;0.000;2024-02-15T07:43:11;2.53;;;1.00;;
75772;SDS011;64381;0.000;0.000;2024-02-15T07:45:36;2.67;;;1.00;;
75772;SDS011;64381;0.000;0.000;2024-02-15T07:48:02;2.77;;;0.93;;
75772;SDS011;64381;0.000;0.000;2024-02-15T07:50:27;3.03;;;1.10;;
75772;SDS011;64381;0.000;0.000;2024-02-15T07:52:52;2.73;;;1.03;;
75772;SDS011;64381;0.000;0.000;2024-02-15T07:55:17;3.80;;;1.23;;
75772;SDS011;64381;0.000;0.000;2024-02-15T07:57:43;3.30;;;1.20;;
75772;SDS011;64381;0.000;0.000;2024-02-15T08:00:08;4.70;;;1.50;;
75772;SDS011;64381;0.000;0.000;2024-02-15T08:02:34;5.75;;;1.52;;
75772;SDS011;64381;0.000;0.000;2024-02-15T08:04:59;3.27;;;1.00;;
75772;SDS011;64381;0.000;0.000;2024-02-15T08:07:24;3.03;;;1.40;;
75772;SDS011;64381;0.000;0.000;2024-02-15T08:09:49;3.27;;;1.50;;
75772;SDS011;64381;0.000;0.000;2024-02-15T08:12:15;5.40;;;1.80;;
75772;SDS011;64381;0.000;0.000;2024-02-15T08:14:40;3.30;;;1.60;;
75772;SDS011;64381;0.000;0.000;2024-02-15T08:17:05;3.60;;;1.63;;
75772;SDS011;64381;0.000;0.000;2024-02-15T08:19:30;7.63;;;1.87;;
75772;SDS011;64381;0.000;0.000;2024-02-15T08:21:55;3.63;;;1.47;;
75772;SDS011;64381;0.000;0.000;2024-02-15T08:24:21;3.27;;;1.53;;
75772;SDS011;64381;0.000;0.000;2024-02-15T08:26:46;4.73;;;1.60;;
75772;SDS011;64381;0.000;0.000;2024-02-15T08:29:11;3.40;;;1.43;;
75772;SDS011;64381;0.000;0.000;2024-02-15T08:31:36;4.10;;;1.30;;
75772;SDS011;64381;0.000;0.000;2024-02-15T08:34:02;3.00;;;1.20;;
75772;SDS011;64381;0.000;0.000;2024-02-15T08:36:27;3.10;;;1.30;;
75772;SDS011;64381;0.000;0.000;2024-02-15T08:38:52;2.80;;;1.10;;
75772;SDS011;64381;0.000;0.000;2024-02-15T08:41:18;3.03;;;1.20;;
75772;SDS011;64381;0.000;0.000;2024-02-15T08:43:43;4.47;;;1.30;;
75772;SDS011;64381;0.000;0.000;2024-02-15T08:46:09;2.90;;;1.07;;
75772;SDS011;64381;0.000;0.000;2024-02-15T08:48:34;3.30;;;1.20;;
75772;SDS011;64381;0.000;0.000;2024-02-15T08:50:59;3.63;;;1.20;;
75772;SDS011;64381;0.000;0.000;2024-02-15T08:53:24;3.15;;;1.20;;
75772;SDS011;64381;0.000;0.000;2024-02-15T08:55:50;4.17;;;1.30;;
75772;SDS011;64381;0.000;0.000;2024-02-15T08:58:15;3.03;;;1.27;;
75772;SDS011;64381;0.000;0.000;2024-02-15T09:00:40;3.10;;;1.07;;
75772;SDS011;64381;0.000;0.000;2024-02-15T09:03:05;4.23;;;1.33;;
75772;SDS011;64381;0.000;0.000;2024-02-15T09:05:31;3.20;;;1.20;;
75772;SDS011;64381;0.000;0.000;2024-02-15T09:07:56;3.33;;;1.30;;
75772;SDS011;64381;0.000;0.000;2024-02-15T09:10:21;3.17;;;1.40;;
75772;SDS011;64381;0.000;0.000;2024-02-15T09:12:46;3.67;;;1.20;;
75772;SDS011;64381;0.000;0.000;2024-02-15T09:15:12;3.70;;;1.40;;
75772;SDS011;64381;0.000;0.000;2024-02-15T09:17:38;3.23;;;1.10;;
75772;SDS011;64381;0.000;0.000;2024-02-15T09:20:03;4.13;;;1.27;;
75772;SDS011;64381;0.000;0.000;2024-02-15T09:22:28;2.88;;;1.10;;
75772;SDS011;64381;0.000;0.000;2024-02-15T09:24:54;3.50;;;1.20;;
75772;SDS011;64381;0.000;0.000;2024-02-15T09:27:19;3.33;;;1.20;;
75772;SDS011;64381;0.000;0.000;2024-02-15T09:29:44;2.83;;;1.10;;
75772;SDS011;64381;0.000;0.000;2024-02-15T09:32:09;3.63;;;1.23;;
75772;SDS011;64381;0.000;0.000;2024-02-15T09:34:34;3.17;;;1.20;;
75772;SDS011;64381;0.000;0.000;2024-02-15T09:37:00;2.97;;;1.10;;
75772;SDS011;64381;0.000;0.000;2024-02-15T09:39:25;3.87;;;1.67;;
75772;SDS011;64381;0.000;0.000;2024-02-15T09:41:50;2.80;;;1.17;;
75772;SDS011;64381;0.000;0.000;2024-02-15T09:44:15;3.17;;;1.17;;
75772;SDS011;64381;0.000;0.000;2024-02-15T09:46:43;2.63;;;0.93;;
75772;SDS011;64381;0.000;0.000;2024-02-15T09:49:08;3.50;;;1.15;;
75772;SDS011;64381;0.000;0.000;2024-02-15T09:51:34;2.93;;;1.10;;
75772;SDS011;64381;0.000;0.000;2024-02-15T09:54:01;3.20;;;1.10;;
75772;SDS011;64381;0.000;0.000;2024-02-15T09:56:29;2.83;;;1.20;;
75772;SDS011;64381;0.000;0.000;2024-02-15T09:58:55;3.13;;;1.10;;
75772;SDS011;64381;0.000;0.000;2024-02-15T10:01:22;3.00;;;1.10;;
75772;SDS011;64381;0.000;0.000;2024-02-15T10:03:49;2.90;;;1.20;;
75772;SDS011;64381;0.000;0.000;2024-02-15T10:06:14;2.72;;;1.10;;
75772;SDS011;64381;0.000;0.000;2024-02-15T10:08:40;2.73;;;1.20;;
75772;SDS011;64381;0.000;0.000;2024-02-15T10:11:05;2.93;;;1.27;;
75772;SDS011;64381;0.000;0.000;2024-02-15T10:13:34;2.92;;;1.10;;
75772;SDS011;64381;0.000;0.000;2024-02-15T10:16:00;2.67;;;1.10;;
75772;SDS011;64381;0.000;0.000;2024-02-15T10:18:42;3.55;;;1.30;;
75772;SDS011;64381;0.000;0.000;2024-02-15T10:21:07;3.00;;;1.10;;
75772;SDS011;64381;0.000;0.000;2024-02-15T10:23:32;2.90;;;1.10;;
75772;SDS011;64381;0.000;0.000;2024-02-15T10:25:58;3.63;;;1.93;;
75772;SDS011;64381;0.000;0.000;2024-02-15T10:28:23;3.13;;;1.20;;
75772;SDS011;64381;0.000;0.000;2024-02-15T10:30:48;3.43;;;1.17;;
75772;SDS011;64381;0.000;0.000;2024-02-15T10:33:27;2.53;;;1.00;;
75772;SDS011;64381;0.000;0.000;2024-02-15T10:36:06;2.95;;;1.30;;
75772;SDS011;64381;0.000;0.000;2024-02-15T10:38:31;3.10;;;1.10;;
75772;SDS011;64381;0.000;0.000;2024-02-15T10:41:02;3.33;;;1.10;;
75772;SDS011;64381;0.000;0.000;2024-02-15T10:43:28;2.55;;;0.90;;
75772;SDS011;64381;0.000;0.000;2024-02-15T10:45:54;2.80;;;1.10;;
75772;SDS011;64381;0.000;0.000;2024-02-15T10:48:20;2.70;;;1.00;;
75772;SDS011;64381;0.000;0.000;2024-02-15T10:50:46;2.90;;;1.20;;
75772;SDS011;64381;0.000;0.000;2024-02-15T10:53:21;3.08;;;1.42;;
75772;SDS011;64381;0.000;0.000;2024-02-15T10:55:53;2.83;;;1.08;;
75772;SDS011;64381;0.000;0.000;2024-02-15T10:58:32;2.88;;;1.10;;
75772;SDS011;64381;0.000;0.000;2024-02-15T11:00:58;3.07;;;0.90;;
75772;SDS011;64381;0.000;0.000;2024-02-15T11:03:25;2.80;;;1.08;;
75772;SDS011;64381;0.000;0.000;2024-02-15T11:05:59;2.83;;;1.17;;
75772;SDS011;64381;0.000;0.000;2024-02-15T11:08:27;2.72;;;1.00;;
75772;SDS011;64381;0.000;0.000;2024-02-15T11:10:52;2.60;;;0.90;;
75772;SDS011;64381;0.000;0.000;2024-02-15T11:13:18;2.80;;;1.00;;
75772;SDS011;64381;0.000;0.000;2024-02-15T11:15:44;2.83;;;1.07;;
75772;SDS011;64381;0.000;0.000;2024-02-15T11:18:10;2.63;;;1.05;;
75772;SDS011;64381;0.000;0.000;2024-02-15T11:23:01;3.00;;;1.10;;
75772;SDS011;64381;0.000;0.000;2024-02-15T11:25:37;2.80;;;1.13;;
75772;SDS011;64381;0.000;0.000;2024-02-15T11:30:46;2.75;;;1.17;;
75772;SDS011;64381;0.000;0.000;2024-02-15T11:33:25;2.43;;;1.00;;
75772;SDS011;64381;0.000;0.000;2024-02-15T11:36:08;2.85;;;1.15;;
75772;SDS011;64381;0.000;0.000;2024-02-15T11:38:35;2.67;;;1.08;;
75772;SDS011;64381;0.000;0.000;2024-02-15T11:41:04;2.42;;;0.95;;
75772;SDS011;64381;0.000;0.000;2024-02-15T11:46:04;2.97;;;1.10;;
75772;SDS011;64381;0.000;0.000;2024-02-15T11:48:30;3.33;;;1.00;;
75772;SDS011;64381;0.000;0.000;2024-02-15T11:50:55;2.70;;;1.00;;
75772;SDS011;64381;0.000;0.000;2024-02-15T11:53:20;2.83;;;1.00;;
75772;SDS011;64381;0.000;0.000;2024-02-15T11:55:45;2.63;;;0.90;;
75772;SDS011;64381;0.000;0.000;2024-02-15T11:58:12;2.43;;;0.90;;
75772;SDS011;64381;0.000;0.000;2024-02-15T12:00:37;2.53;;;0.83;;
75772;SDS011;64381;0.000;0.000;2024-02-15T12:03:03;2.50;;;0.90;;
75772;SDS011;64381;0.000;0.000;2024-02-15T12:05:29;2.50;;;0.90;;
75772;SDS011;64381;0.000;0.000;2024-02-15T12:07:54;2.60;;;1.00;;
75772;SDS011;64381;0.000;0.000;2024-02-15T12:10:20;2.50;;;0.90;;
75772;SDS011;64381;0.000;0.000;2024-02-15T12:12:52;2.67;;;1.07;;
75772;SDS011;64381;0.000;0.000;2024-02-15T12:15:18;2.50;;;0.90;;
75772;SDS011;64381;0.000;0.000;2024-02-15T12:17:43;2.37;;;0.80;;
75772;SDS011;64381;0.000;0.000;2024-02-15T12:20:09;2.57;;;0.90;;
75772;SDS011;64381;0.000;0.000;2024-02-15T12:25:13;2.40;;;0.90;;
75772;SDS011;64381;0.000;0.000;2024-02-15T12:27:40;2.80;;;0.90;;
75772;SDS011;64381;0.000;0.000;2024-02-15T12:30:06;2.55;;;0.90;;
75772;SDS011;64381;0.000;0.000;2024-02-15T12:32:32;2.45;;;0.98;;
75772;SDS011;64381;0.000;0.000;2024-02-15T12:38:01;2.63;;;0.90;;
75772;SDS011;64381;0.000;0.000;2024-02-15T12:40:31;2.57;;;1.00;;
75772;SDS011;64381;0.000;0.000;2024-02-15T12:42:57;2.78;;;1.05;;
75772;SDS011;64381;0.000;0.000;2024-02-15T12:45:25;3.10;;;1.07;;
75772;SDS011;64381;0.000;0.000;2024-02-15T12:47:51;2.80;;;0.90;;
75772;SDS011;64381;0.000;0.000;2024-02-15T12:50:17;2.63;;;1.00;;
75772;SDS011;64381;0.000;0.000;2024-02-15T12:52:45;2.47;;;0.90;;
75772;SDS011;64381;0.000;0.000;2024-02-15T12:55:15;2.42;;;0.88;;
75772;SDS011;64381;0.000;0.000;2024-02-15T12:57:42;2.40;;;0.98;;
75772;SDS011;64381;0.000;0.000;2024-02-15T13:00:09;2.70;;;1.00;;
75772;SDS011;64381;0.000;0.000;2024-02-15T13:02:35;2.50;;;0.95;;
75772;SDS011;64381;0.000;0.000;2024-02-15T13:05:00;2.43;;;0.90;;
75772;SDS011;64381;0.000;0.000;2024-02-15T13:07:25;3.00;;;1.03;;
75772;SDS011;64381;0.000;0.000;2024-02-15T13:09:50;2.50;;;0.90;;
75772;SDS011;64381;0.000;0.000;2024-02-15T13:12:16;2.30;;;0.70;;
75772;SDS011;64381;0.000;0.000;2024-02-15T13:14:41;2.73;;;0.97;;
75772;SDS011;64381;0.000;0.000;2024-02-15T13:17:06;3.40;;;1.20;;
75772;SDS011;64381;0.000;0.000;2024-02-15T13:19:31;2.40;;;0.80;;
75772;SDS011;64381;0.000;0.000;2024-02-15T13:21:56;2.60;;;0.87;;
75772;SDS011;64381;0.000;0.000;2024-02-15T13:24:22;2.83;;;1.13;;
75772;SDS011;64381;0.000;0.000;2024-02-15T13:26:47;2.67;;;0.97;;
75772;SDS011;64381;0.000;0.000;2024-02-15T13:29:12;3.10;;;0.80;;
75772;SDS011;64381;0.000;0.000;2024-02-15T13:31:37;2.60;;;0.90;;
75772;SDS011;64381;0.000;0.000;2024-02-15T13:34:02;2.40;;;0.90;;
75772;SDS011;64381;0.000;0.000;2024-02-15T13:36:28;2.30;;;0.80;;
75772;SDS011;64381;0.000;0.000;2024-02-15T13:38:53;2.60;;;0.90;;
75772;SDS011;64381;0.000;0.000;2024-02-15T13:41:18;2.50;;;0.90;;
75772;SDS011;64381;0.000;0.000;2024-02-15T13:43:43;2.53;;;0.80;;
75772;SDS011;64381;0.000;0.000;2024-02-15T13:46:08;2.50;;;1.03;;
75772;SDS011;64381;0.000;0.000;2024-02-15T13:48:34;2.13;;;0.60;;
75772;SDS011;64381;0.000;0.000;2024-02-15T13:50:59;2.40;;;0.80;;
75772;SDS011;64381;0.000;0.000;2024-02-15T13:53:24;3.20;;;1.10;;
75772;SDS011;64381;0.000;0.000;2024-02-15T13:55:49;2.30;;;0.80;;
75772;SDS011;64381;0.000;0.000;2024-02-15T13:58:14;2.13;;;0.80;;
75772;SDS011;64381;0.000;0.000;2024-02-15T14:00:40;2.83;;;0.87;;
75772;SDS011;64381;0.000;0.000;2024-02-15T14:03:06;2.60;;;1.00;;
75772;SDS011;64381;0.000;0.000;2024-02-15T14:05:31;2.40;;;0.90;;
75772;SDS011;64381;0.000;0.000;2024-02-15T14:07:57;2.50;;;1.00;;
75772;SDS011;64381;0.000;0.000;2024-02-15T14:10:29;2.53;;;0.90;;
75772;SDS011;64381;0.000;0.000;2024-02-15T14:12:56;2.30;;;0.90;;
75772;SDS011;64381;0.000;0.000;2024-02-15T14:15:21;2.47;;;0.80;;
75772;SDS011;64381;0.000;0.000;2024-02-15T14:17:47;2.50;;;0.93;;
75772;SDS011;64381;0.000;0.000;2024-02-15T14:20:13;2.40;;;0.80;;
75772;SDS011;64381;0.000;0.000;2024-02-15T14:22:45;2.15;;;0.80;;
75772;SDS011;64381;0.000;0.000;2024-02-15T14:25:12;2.30;;;0.90;;
75772;SDS011;64381;0.000;0.000;2024-02-15T14:27:40;2.50;;;0.80;;
75772;SDS011;64381;0.000;0.000;2024-02-15T14:30:05;2.50;;;0.90;;
75772;SDS011;64381;0.000;0.000;2024-02-15T14:32:31;2.20;;;0.80;;
75772;SDS011;64381;0.000;0.000;2024-02-15T14:34:57;2.30;;;1.00;;
75772;SDS011;64381;0.000;0.000;2024-02-15T14:37:22;2.53;;;0.90;;
75772;SDS011;64381;0.000;0.000;2024-02-15T14:39:47;2.13;;;0.70;;
75772;SDS011;64381;0.000;0.000;2024-02-15T14:42:13;2.30;;;0.90;;
75772;SDS011;64381;0.000;0.000;2024-02-15T14:44:38;2.77;;;1.10;;
75772;SDS011;64381;0.000;0.000;2024-02-15T14:47:03;3.03;;;1.03;;
75772;SDS011;64381;0.000;0.000;2024-02-15T14:49:28;2.43;;;0.80;;
75772;SDS011;64381;0.000;0.000;2024-02-15T14:51:54;2.60;;;0.80;;
75772;SDS011;64381;0.000;0.000;2024-02-15T14:54:19;2.33;;;0.80;;
75772;SDS011;64381;0.000;0.000;2024-02-15T14:56:44;2.70;;;0.90;;
75772;SDS011;64381;0.000;0.000;2024-02-15T14:59:10;2.37;;;0.80;;
75772;SDS011;64381;0.000;0.000;2024-02-15T15:01:36;2.60;;;1.00;;
75772;SDS011;64381;0.000;0.000;2024-02-15T15:04:02;2.25;;;0.80;;
75772;SDS011;64381;0.000;0.000;2024-02-15T15:06:27;2.37;;;0.87;;